Bishop International Airport Flint US
ICAO: KFNT
IATA: FNT
Category: Medium
Scheduled Services: Yes

Elevation: 782 ft
TransAlt. 18000 ft.

Airport Communications:
FLINT APP/DEP:118.8
ATIS:133.15
CLNC DEL:121.75
CTAF:126.3
FLINT GND:121.9
LANSING RDO:122.3
FLINT TWR:126.3
UNICOM:122.95

KFNT Zoom In..

If you have problems with the map follow the link
https://www.worldairports.se/pages/airport.php?
ICAO=KFNT

Runways:

(A) RW 09 length 7200 ft width 150 ft
ILS 109.90 / hdg 94

(B) RW 18 length 7848 ft width 150 ft
---- / hdg 185

(C) RW 27 length 7200 ft width 150 ft
ILS 109.90 / hdg 274

(D) RW 36 length 7848 ft width 150 ft
---- / hdg 5

Location; KFNT
Day. 18 / Time. 06.53 Zulu
* Altimeter: 30.46
* Temperature: 00° c. 32°f.
* Wind from: 340° Speed 06 kn.
Dewpoint: -04° c.
Visibility: 10 Statute Miles.
Clouds: Clear (automated report).

KFNT 180653Z AUTO 34006KT 10SM CLR 00/M04 A3046 RMK AO2 SLP322 T00001039


Wind From 340°
Speed 06 kn.

 
 
jpsmedia.com for Web Design worldairports.se 2018   terms of use